Terminal Aerodrome Forecast
Issued by NWS

Home | Current Version | Previous Version | Graphics & Text | Print | Product List | Glossary On
Versions: 1 2 3 4 5 6 7 8 9 10 11 12 13 14 15 16 17 18 19 20 21
000
FTUS43 KABR 272331
TAFMBG
TAF
KMBG 272331Z 2800/2824 14021G30KT P6SM SCT200
     FM280300 15022G32KT P6SM VCTS SCT050CB BKN100
     FM280900 30025G35KT P6SM BKN200=

USA.gov is the U.S. government's official web portal to all federal, state and local government web resources and services.